sensor_id;sensor_type;location;lat;lon;timestamp;P1;durP1;ratioP1;P2;durP2;ratioP2
37529;SDS011;23374;52.758;6.872;2022-08-19T00:00:23;4.30;;;2.77;;
37529;SDS011;23374;52.758;6.872;2022-08-19T00:02:44;3.73;;;2.73;;
37529;SDS011;23374;52.758;6.872;2022-08-19T00:05:09;4.87;;;2.80;;
37529;SDS011;23374;52.758;6.872;2022-08-19T00:07:32;3.67;;;2.30;;
37529;SDS011;23374;52.758;6.872;2022-08-19T00:09:52;3.93;;;2.37;;
37529;SDS011;23374;52.758;6.872;2022-08-19T00:12:13;3.27;;;2.50;;
37529;SDS011;23374;52.758;6.872;2022-08-19T00:14:34;4.00;;;2.50;;
37529;SDS011;23374;52.758;6.872;2022-08-19T00:16:55;2.73;;;2.37;;
37529;SDS011;23374;52.758;6.872;2022-08-19T00:19:15;5.17;;;2.60;;
37529;SDS011;23374;52.758;6.872;2022-08-19T00:21:37;4.43;;;2.50;;
37529;SDS011;23374;52.758;6.872;2022-08-19T00:23:59;4.73;;;2.40;;
37529;SDS011;23374;52.758;6.872;2022-08-19T00:26:19;3.30;;;2.57;;
37529;SDS011;23374;52.758;6.872;2022-08-19T00:28:40;4.43;;;2.90;;
37529;SDS011;23374;52.758;6.872;2022-08-19T00:31:02;6.93;;;3.97;;
37529;SDS011;23374;52.758;6.872;2022-08-19T00:33:24;6.60;;;4.13;;
37529;SDS011;23374;52.758;6.872;2022-08-19T00:35:44;8.17;;;4.87;;
37529;SDS011;23374;52.758;6.872;2022-08-19T00:38:05;7.10;;;4.30;;
37529;SDS011;23374;52.758;6.872;2022-08-19T00:40:28;5.73;;;4.20;;
37529;SDS011;23374;52.758;6.872;2022-08-19T00:42:50;10.87;;;4.70;;
37529;SDS011;23374;52.758;6.872;2022-08-19T00:45:16;7.77;;;4.33;;
37529;SDS011;23374;52.758;6.872;2022-08-19T00:47:40;5.57;;;3.37;;
37529;SDS011;23374;52.758;6.872;2022-08-19T00:51:01;8.10;;;4.47;;
37529;SDS011;23374;52.758;6.872;2022-08-19T00:53:25;6.27;;;4.43;;
37529;SDS011;23374;52.758;6.872;2022-08-19T00:55:49;7.37;;;4.90;;
37529;SDS011;23374;52.758;6.872;2022-08-19T00:58:14;7.00;;;4.57;;
37529;SDS011;23374;52.758;6.872;2022-08-19T01:00:37;8.37;;;4.57;;
37529;SDS011;23374;52.758;6.872;2022-08-19T01:02:58;10.33;;;5.30;;
37529;SDS011;23374;52.758;6.872;2022-08-19T01:05:23;9.37;;;5.60;;
37529;SDS011;23374;52.758;6.872;2022-08-19T01:07:47;9.40;;;5.57;;
37529;SDS011;23374;52.758;6.872;2022-08-19T01:10:13;9.13;;;5.37;;
37529;SDS011;23374;52.758;6.872;2022-08-19T01:12:38;10.07;;;5.83;;
37529;SDS011;23374;52.758;6.872;2022-08-19T01:14:59;10.07;;;5.37;;
37529;SDS011;23374;52.758;6.872;2022-08-19T01:17:19;9.27;;;5.40;;
37529;SDS011;23374;52.758;6.872;2022-08-19T01:19:41;8.20;;;5.47;;
37529;SDS011;23374;52.758;6.872;2022-08-19T01:23:33;9.83;;;4.83;;
37529;SDS011;23374;52.758;6.872;2022-08-19T01:26:03;8.30;;;4.80;;
37529;SDS011;23374;52.758;6.872;2022-08-19T01:28:26;11.60;;;4.93;;
37529;SDS011;23374;52.758;6.872;2022-08-19T01:30:47;9.60;;;5.10;;
37529;SDS011;23374;52.758;6.872;2022-08-19T01:33:08;8.57;;;5.00;;
37529;SDS011;23374;52.758;6.872;2022-08-19T01:35:29;8.93;;;4.43;;
37529;SDS011;23374;52.758;6.872;2022-08-19T01:37:55;8.27;;;4.80;;
37529;SDS011;23374;52.758;6.872;2022-08-19T01:40:19;7.70;;;4.93;;
37529;SDS011;23374;52.758;6.872;2022-08-19T01:42:41;7.20;;;4.60;;
37529;SDS011;23374;52.758;6.872;2022-08-19T01:45:01;8.20;;;4.63;;
37529;SDS011;23374;52.758;6.872;2022-08-19T01:47:23;7.80;;;4.43;;
37529;SDS011;23374;52.758;6.872;2022-08-19T01:51:08;10.07;;;5.03;;
37529;SDS011;23374;52.758;6.872;2022-08-19T01:53:29;9.17;;;5.03;;
37529;SDS011;23374;52.758;6.872;2022-08-19T01:55:49;9.80;;;5.10;;
37529;SDS011;23374;52.758;6.872;2022-08-19T01:58:15;10.57;;;6.07;;
37529;SDS011;23374;52.758;6.872;2022-08-19T02:00:41;9.33;;;5.60;;
37529;SDS011;23374;52.758;6.872;2022-08-19T02:03:02;12.63;;;5.67;;
37529;SDS011;23374;52.758;6.872;2022-08-19T02:05:22;11.60;;;6.43;;
37529;SDS011;23374;52.758;6.872;2022-08-19T02:07:43;7.80;;;5.47;;
37529;SDS011;23374;52.758;6.872;2022-08-19T02:10:11;9.87;;;5.47;;
37529;SDS011;23374;52.758;6.872;2022-08-19T02:12:38;9.20;;;5.47;;
37529;SDS011;23374;52.758;6.872;2022-08-19T02:14:59;7.33;;;5.10;;
37529;SDS011;23374;52.758;6.872;2022-08-19T02:17:21;10.07;;;5.80;;
37529;SDS011;23374;52.758;6.872;2022-08-19T02:19:42;10.83;;;6.20;;
37529;SDS011;23374;52.758;6.872;2022-08-19T02:22:02;9.83;;;5.40;;
37529;SDS011;23374;52.758;6.872;2022-08-19T02:24:22;12.60;;;5.70;;
37529;SDS011;23374;52.758;6.872;2022-08-19T02:26:42;8.63;;;5.10;;
37529;SDS011;23374;52.758;6.872;2022-08-19T02:29:03;9.37;;;5.77;;
37529;SDS011;23374;52.758;6.872;2022-08-19T02:31:24;9.60;;;5.37;;
37529;SDS011;23374;52.758;6.872;2022-08-19T02:33:47;6.23;;;4.63;;
37529;SDS011;23374;52.758;6.872;2022-08-19T02:36:08;7.97;;;4.80;;
37529;SDS011;23374;52.758;6.872;2022-08-19T02:38:29;9.73;;;5.37;;
37529;SDS011;23374;52.758;6.872;2022-08-19T02:40:58;8.13;;;5.50;;
37529;SDS011;23374;52.758;6.872;2022-08-19T02:43:26;9.63;;;5.50;;
37529;SDS011;23374;52.758;6.872;2022-08-19T02:45:48;8.70;;;5.30;;
37529;SDS011;23374;52.758;6.872;2022-08-19T02:48:09;8.97;;;5.20;;
37529;SDS011;23374;52.758;6.872;2022-08-19T02:51:27;8.83;;;5.27;;
37529;SDS011;23374;52.758;6.872;2022-08-19T02:53:49;9.37;;;5.07;;
37529;SDS011;23374;52.758;6.872;2022-08-19T02:56:10;8.37;;;4.90;;
37529;SDS011;23374;52.758;6.872;2022-08-19T02:58:30;10.47;;;4.97;;
37529;SDS011;23374;52.758;6.872;2022-08-19T03:00:55;7.47;;;4.53;;
37529;SDS011;23374;52.758;6.872;2022-08-19T03:03:16;8.60;;;4.60;;
37529;SDS011;23374;52.758;6.872;2022-08-19T03:05:38;9.27;;;4.70;;
37529;SDS011;23374;52.758;6.872;2022-08-19T03:07:58;7.33;;;4.90;;
37529;SDS011;23374;52.758;6.872;2022-08-19T03:10:19;9.10;;;4.53;;
37529;SDS011;23374;52.758;6.872;2022-08-19T03:12:40;7.20;;;4.53;;
37529;SDS011;23374;52.758;6.872;2022-08-19T03:15:00;9.50;;;4.60;;
37529;SDS011;23374;52.758;6.872;2022-08-19T03:17:20;6.73;;;4.10;;
37529;SDS011;23374;52.758;6.872;2022-08-19T03:19:40;7.90;;;5.07;;
37529;SDS011;23374;52.758;6.872;2022-08-19T03:22:01;8.67;;;4.00;;
37529;SDS011;23374;52.758;6.872;2022-08-19T03:24:22;9.57;;;4.67;;
37529;SDS011;23374;52.758;6.872;2022-08-19T03:26:45;5.87;;;3.80;;
37529;SDS011;23374;52.758;6.872;2022-08-19T03:29:08;4.80;;;3.00;;
37529;SDS011;23374;52.758;6.872;2022-08-19T03:31:30;4.60;;;2.90;;
37529;SDS011;23374;52.758;6.872;2022-08-19T03:33:51;4.03;;;2.80;;
37529;SDS011;23374;52.758;6.872;2022-08-19T03:36:14;4.60;;;2.57;;
37529;SDS011;23374;52.758;6.872;2022-08-19T03:38:42;6.47;;;3.70;;
37529;SDS011;23374;52.758;6.872;2022-08-19T03:41:08;10.33;;;5.43;;
37529;SDS011;23374;52.758;6.872;2022-08-19T03:43:30;16.57;;;5.57;;
37529;SDS011;23374;52.758;6.872;2022-08-19T03:46:03;10.33;;;6.00;;
37529;SDS011;23374;52.758;6.872;2022-08-19T03:48:26;8.37;;;4.70;;
37529;SDS011;23374;52.758;6.872;2022-08-19T03:50:46;9.00;;;5.17;;
37529;SDS011;23374;52.758;6.872;2022-08-19T03:53:06;10.47;;;4.90;;
37529;SDS011;23374;52.758;6.872;2022-08-19T03:55:28;10.17;;;5.00;;
37529;SDS011;23374;52.758;6.872;2022-08-19T03:58:01;9.17;;;4.70;;
37529;SDS011;23374;52.758;6.872;2022-08-19T04:00:22;10.63;;;4.33;;
37529;SDS011;23374;52.758;6.872;2022-08-19T04:02:42;6.40;;;4.03;;
37529;SDS011;23374;52.758;6.872;2022-08-19T04:05:03;9.97;;;4.47;;
37529;SDS011;23374;52.758;6.872;2022-08-19T04:07:25;8.03;;;4.97;;
37529;SDS011;23374;52.758;6.872;2022-08-19T04:09:45;8.37;;;4.30;;
37529;SDS011;23374;52.758;6.872;2022-08-19T04:12:06;11.63;;;4.57;;
37529;SDS011;23374;52.758;6.872;2022-08-19T04:14:28;9.17;;;4.97;;
37529;SDS011;23374;52.758;6.872;2022-08-19T04:16:53;6.13;;;4.40;;
37529;SDS011;23374;52.758;6.872;2022-08-19T04:19:14;10.57;;;5.40;;
37529;SDS011;23374;52.758;6.872;2022-08-19T04:21:36;11.40;;;5.33;;
37529;SDS011;23374;52.758;6.872;2022-08-19T04:23:56;9.17;;;4.87;;
37529;SDS011;23374;52.758;6.872;2022-08-19T04:26:19;7.77;;;5.13;;
37529;SDS011;23374;52.758;6.872;2022-08-19T04:28:43;9.17;;;4.80;;
37529;SDS011;23374;52.758;6.872;2022-08-19T04:31:03;9.37;;;5.03;;
37529;SDS011;23374;52.758;6.872;2022-08-19T04:33:25;9.97;;;5.17;;
37529;SDS011;23374;52.758;6.872;2022-08-19T04:35:49;9.00;;;5.97;;
37529;SDS011;23374;52.758;6.872;2022-08-19T04:38:11;9.47;;;4.83;;
37529;SDS011;23374;52.758;6.872;2022-08-19T04:40:32;8.00;;;5.10;;
37529;SDS011;23374;52.758;6.872;2022-08-19T04:43:11;11.83;;;6.17;;
37529;SDS011;23374;52.758;6.872;2022-08-19T04:45:36;12.20;;;5.67;;
37529;SDS011;23374;52.758;6.872;2022-08-19T04:47:56;11.13;;;5.90;;
37529;SDS011;23374;52.758;6.872;2022-08-19T04:50:17;10.20;;;5.43;;
37529;SDS011;23374;52.758;6.872;2022-08-19T04:52:38;9.83;;;5.47;;
37529;SDS011;23374;52.758;6.872;2022-08-19T04:55:03;9.73;;;5.27;;
37529;SDS011;23374;52.758;6.872;2022-08-19T04:57:25;8.83;;;5.00;;
37529;SDS011;23374;52.758;6.872;2022-08-19T04:59:45;8.80;;;5.27;;
37529;SDS011;23374;52.758;6.872;2022-08-19T05:02:07;8.60;;;5.20;;
37529;SDS011;23374;52.758;6.872;2022-08-19T05:04:28;8.73;;;5.80;;
37529;SDS011;23374;52.758;6.872;2022-08-19T05:06:51;10.10;;;5.43;;
37529;SDS011;23374;52.758;6.872;2022-08-19T05:09:14;9.30;;;5.50;;
37529;SDS011;23374;52.758;6.872;2022-08-19T05:11:36;8.93;;;5.20;;
37529;SDS011;23374;52.758;6.872;2022-08-19T05:14:00;9.20;;;5.40;;
37529;SDS011;23374;52.758;6.872;2022-08-19T05:16:21;10.00;;;6.20;;
37529;SDS011;23374;52.758;6.872;2022-08-19T05:18:43;10.33;;;6.17;;
37529;SDS011;23374;52.758;6.872;2022-08-19T05:21:22;13.17;;;6.33;;
37529;SDS011;23374;52.758;6.872;2022-08-19T05:24:04;11.63;;;6.50;;
37529;SDS011;23374;52.758;6.872;2022-08-19T05:26:28;11.37;;;7.40;;
37529;SDS011;23374;52.758;6.872;2022-08-19T05:28:48;11.07;;;5.73;;
37529;SDS011;23374;52.758;6.872;2022-08-19T05:31:08;10.00;;;6.30;;
37529;SDS011;23374;52.758;6.872;2022-08-19T05:33:29;9.70;;;5.60;;
37529;SDS011;23374;52.758;6.872;2022-08-19T05:35:50;11.40;;;6.53;;
37529;SDS011;23374;52.758;6.872;2022-08-19T05:38:10;7.33;;;4.50;;
37529;SDS011;23374;52.758;6.872;2022-08-19T05:40:30;6.40;;;3.90;;
37529;SDS011;23374;52.758;6.872;2022-08-19T05:42:53;5.07;;;3.47;;
37529;SDS011;23374;52.758;6.872;2022-08-19T05:45:13;6.03;;;4.23;;
37529;SDS011;23374;52.758;6.872;2022-08-19T05:47:33;9.50;;;5.50;;
37529;SDS011;23374;52.758;6.872;2022-08-19T05:49:54;8.13;;;5.40;;
37529;SDS011;23374;52.758;6.872;2022-08-19T05:52:15;8.53;;;5.43;;
37529;SDS011;23374;52.758;6.872;2022-08-19T05:54:37;9.13;;;5.60;;
37529;SDS011;23374;52.758;6.872;2022-08-19T05:57:02;10.90;;;6.23;;
37529;SDS011;23374;52.758;6.872;2022-08-19T05:59:23;10.40;;;6.73;;
37529;SDS011;23374;52.758;6.872;2022-08-19T06:01:44;13.87;;;7.30;;
37529;SDS011;23374;52.758;6.872;2022-08-19T06:04:06;12.67;;;7.57;;
37529;SDS011;23374;52.758;6.872;2022-08-19T06:06:26;12.10;;;7.73;;
37529;SDS011;23374;52.758;6.872;2022-08-19T06:08:46;12.17;;;6.70;;
37529;SDS011;23374;52.758;6.872;2022-08-19T06:11:45;12.93;;;8.10;;
37529;SDS011;23374;52.758;6.872;2022-08-19T06:14:12;11.87;;;7.53;;
37529;SDS011;23374;52.758;6.872;2022-08-19T06:16:36;15.07;;;8.77;;
37529;SDS011;23374;52.758;6.872;2022-08-19T06:19:00;15.13;;;7.70;;
37529;SDS011;23374;52.758;6.872;2022-08-19T06:21:24;13.27;;;8.50;;
37529;SDS011;23374;52.758;6.872;2022-08-19T06:23:47;18.03;;;9.77;;
37529;SDS011;23374;52.758;6.872;2022-08-19T06:26:14;16.13;;;9.50;;
37529;SDS011;23374;52.758;6.872;2022-08-19T06:28:36;17.23;;;9.50;;
37529;SDS011;23374;52.758;6.872;2022-08-19T06:30:56;15.97;;;9.40;;
37529;SDS011;23374;52.758;6.872;2022-08-19T06:33:16;18.23;;;10.07;;
37529;SDS011;23374;52.758;6.872;2022-08-19T06:35:40;16.83;;;8.97;;
37529;SDS011;23374;52.758;6.872;2022-08-19T06:38:01;14.23;;;8.60;;
37529;SDS011;23374;52.758;6.872;2022-08-19T06:40:24;15.80;;;8.40;;
37529;SDS011;23374;52.758;6.872;2022-08-19T06:42:47;12.77;;;8.50;;
37529;SDS011;23374;52.758;6.872;2022-08-19T06:45:08;15.93;;;8.83;;
37529;SDS011;23374;52.758;6.872;2022-08-19T06:47:29;12.73;;;7.87;;
37529;SDS011;23374;52.758;6.872;2022-08-19T06:49:53;13.40;;;8.53;;
37529;SDS011;23374;52.758;6.872;2022-08-19T06:52:22;14.80;;;7.77;;
37529;SDS011;23374;52.758;6.872;2022-08-19T06:54:43;16.97;;;8.97;;
37529;SDS011;23374;52.758;6.872;2022-08-19T06:57:04;14.83;;;8.67;;
37529;SDS011;23374;52.758;6.872;2022-08-19T06:59:26;16.70;;;8.93;;
37529;SDS011;23374;52.758;6.872;2022-08-19T07:01:49;14.53;;;8.83;;
37529;SDS011;23374;52.758;6.872;2022-08-19T07:04:11;17.70;;;9.53;;
37529;SDS011;23374;52.758;6.872;2022-08-19T07:06:35;16.87;;;9.23;;
37529;SDS011;23374;52.758;6.872;2022-08-19T07:08:57;18.30;;;9.40;;
37529;SDS011;23374;52.758;6.872;2022-08-19T07:11:18;17.13;;;10.03;;
37529;SDS011;23374;52.758;6.872;2022-08-19T07:13:39;18.03;;;9.20;;
37529;SDS011;23374;52.758;6.872;2022-08-19T07:16:05;15.17;;;9.40;;
37529;SDS011;23374;52.758;6.872;2022-08-19T07:18:26;17.30;;;9.57;;
37529;SDS011;23374;52.758;6.872;2022-08-19T07:20:47;19.90;;;9.53;;
37529;SDS011;23374;52.758;6.872;2022-08-19T07:23:08;15.20;;;8.73;;
37529;SDS011;23374;52.758;6.872;2022-08-19T07:25:29;18.07;;;9.33;;
37529;SDS011;23374;52.758;6.872;2022-08-19T07:27:49;18.77;;;9.67;;
37529;SDS011;23374;52.758;6.872;2022-08-19T07:30:10;16.53;;;9.17;;
37529;SDS011;23374;52.758;6.872;2022-08-19T07:32:31;13.83;;;8.90;;
37529;SDS011;23374;52.758;6.872;2022-08-19T07:34:52;16.63;;;9.30;;
37529;SDS011;23374;52.758;6.872;2022-08-19T07:37:12;20.17;;;9.40;;
37529;SDS011;23374;52.758;6.872;2022-08-19T07:39:34;16.63;;;9.73;;
37529;SDS011;23374;52.758;6.872;2022-08-19T07:41:57;15.50;;;9.30;;
37529;SDS011;23374;52.758;6.872;2022-08-19T07:44:19;13.70;;;8.70;;
37529;SDS011;23374;52.758;6.872;2022-08-19T07:46:43;14.83;;;9.07;;
37529;SDS011;23374;52.758;6.872;2022-08-19T07:49:06;16.97;;;8.90;;
37529;SDS011;23374;52.758;6.872;2022-08-19T07:51:27;16.43;;;8.83;;
37529;SDS011;23374;52.758;6.872;2022-08-19T07:53:48;15.87;;;9.43;;
37529;SDS011;23374;52.758;6.872;2022-08-19T07:56:10;14.30;;;9.90;;
37529;SDS011;23374;52.758;6.872;2022-08-19T07:58:36;13.17;;;8.83;;
37529;SDS011;23374;52.758;6.872;2022-08-19T08:00:59;15.80;;;8.97;;
37529;SDS011;23374;52.758;6.872;2022-08-19T08:03:20;15.33;;;9.30;;
37529;SDS011;23374;52.758;6.872;2022-08-19T08:11:30;14.40;;;8.87;;
37529;SDS011;23374;52.758;6.872;2022-08-19T08:13:50;14.43;;;7.83;;
37529;SDS011;23374;52.758;6.872;2022-08-19T08:16:11;11.83;;;7.80;;
37529;SDS011;23374;52.758;6.872;2022-08-19T08:18:31;12.27;;;8.33;;
37529;SDS011;23374;52.758;6.872;2022-08-19T08:20:52;12.83;;;9.13;;
37529;SDS011;23374;52.758;6.872;2022-08-19T08:23:13;14.87;;;8.97;;
37529;SDS011;23374;52.758;6.872;2022-08-19T08:25:42;14.00;;;8.93;;
37529;SDS011;23374;52.758;6.872;2022-08-19T08:28:02;14.07;;;8.63;;
37529;SDS011;23374;52.758;6.872;2022-08-19T08:30:24;13.60;;;9.07;;
37529;SDS011;23374;52.758;6.872;2022-08-19T08:32:46;18.03;;;9.03;;
37529;SDS011;23374;52.758;6.872;2022-08-19T08:35:10;16.43;;;9.20;;
37529;SDS011;23374;52.758;6.872;2022-08-19T08:37:32;14.53;;;8.57;;
37529;SDS011;23374;52.758;6.872;2022-08-19T08:39:53;13.43;;;8.90;;
37529;SDS011;23374;52.758;6.872;2022-08-19T08:42:35;16.60;;;8.77;;
37529;SDS011;23374;52.758;6.872;2022-08-19T08:45:08;13.37;;;8.47;;
37529;SDS011;23374;52.758;6.872;2022-08-19T08:47:35;17.47;;;9.87;;
37529;SDS011;23374;52.758;6.872;2022-08-19T08:50:03;17.67;;;10.47;;
37529;SDS011;23374;52.758;6.872;2022-08-19T08:52:29;15.43;;;9.60;;
37529;SDS011;23374;52.758;6.872;2022-08-19T08:54:57;17.37;;;10.40;;
37529;SDS011;23374;52.758;6.872;2022-08-19T08:59:16;16.30;;;9.93;;
37529;SDS011;23374;52.758;6.872;2022-08-19T09:01:43;14.93;;;8.87;;
37529;SDS011;23374;52.758;6.872;2022-08-19T09:04:04;18.77;;;10.17;;
37529;SDS011;23374;52.758;6.872;2022-08-19T09:07:06;17.73;;;10.27;;
37529;SDS011;23374;52.758;6.872;2022-08-19T09:09:39;15.23;;;9.33;;
37529;SDS011;23374;52.758;6.872;2022-08-19T09:28:00;13.77;;;9.00;;
37529;SDS011;23374;52.758;6.872;2022-08-19T09:30:24;11.80;;;7.83;;
37529;SDS011;23374;52.758;6.872;2022-08-19T09:32:46;12.20;;;6.93;;
37529;SDS011;23374;52.758;6.872;2022-08-19T09:35:08;13.67;;;9.00;;
37529;SDS011;23374;52.758;6.872;2022-08-19T09:37:28;15.33;;;7.77;;
37529;SDS011;23374;52.758;6.872;2022-08-19T09:39:48;13.13;;;8.10;;
37529;SDS011;23374;52.758;6.872;2022-08-19T09:42:09;10.83;;;7.60;;
37529;SDS011;23374;52.758;6.872;2022-08-19T09:44:31;9.97;;;7.27;;
37529;SDS011;23374;52.758;6.872;2022-08-19T09:46:53;9.63;;;6.60;;
37529;SDS011;23374;52.758;6.872;2022-08-19T09:49:15;9.70;;;6.80;;
37529;SDS011;23374;52.758;6.872;2022-08-19T09:51:37;11.13;;;6.83;;
37529;SDS011;23374;52.758;6.872;2022-08-19T09:54:02;11.83;;;8.20;;
37529;SDS011;23374;52.758;6.872;2022-08-19T09:56:23;14.70;;;8.40;;
37529;SDS011;23374;52.758;6.872;2022-08-19T09:58:49;10.43;;;6.73;;
37529;SDS011;23374;52.758;6.872;2022-08-19T10:01:15;13.77;;;8.13;;
37529;SDS011;23374;52.758;6.872;2022-08-19T10:03:47;12.93;;;8.73;;
37529;SDS011;23374;52.758;6.872;2022-08-19T10:06:09;13.47;;;8.17;;
37529;SDS011;23374;52.758;6.872;2022-08-19T10:08:32;13.13;;;7.53;;
37529;SDS011;23374;52.758;6.872;2022-08-19T10:10:56;12.97;;;8.17;;
37529;SDS011;23374;52.758;6.872;2022-08-19T10:13:19;12.50;;;7.93;;
37529;SDS011;23374;52.758;6.872;2022-08-19T10:15:44;12.03;;;7.57;;
37529;SDS011;23374;52.758;6.872;2022-08-19T10:18:10;15.23;;;7.53;;
37529;SDS011;23374;52.758;6.872;2022-08-19T10:20:31;11.03;;;6.87;;
37529;SDS011;23374;52.758;6.872;2022-08-19T10:22:52;10.33;;;7.20;;
37529;SDS011;23374;52.758;6.872;2022-08-19T10:25:12;13.63;;;8.53;;
37529;SDS011;23374;52.758;6.872;2022-08-19T10:27:34;15.20;;;9.80;;
37529;SDS011;23374;52.758;6.872;2022-08-19T10:29:54;13.17;;;9.13;;
37529;SDS011;23374;52.758;6.872;2022-08-19T10:32:16;13.20;;;8.50;;
37529;SDS011;23374;52.758;6.872;2022-08-19T10:34:36;12.73;;;8.00;;
37529;SDS011;23374;52.758;6.872;2022-08-19T10:36:58;14.87;;;7.93;;
37529;SDS011;23374;52.758;6.872;2022-08-19T10:39:19;14.97;;;9.17;;
37529;SDS011;23374;52.758;6.872;2022-08-19T10:41:40;12.03;;;8.17;;
37529;SDS011;23374;52.758;6.872;2022-08-19T10:44:07;10.30;;;6.70;;
37529;SDS011;23374;52.758;6.872;2022-08-19T10:46:29;9.87;;;6.60;;
37529;SDS011;23374;52.758;6.872;2022-08-19T10:48:53;9.77;;;5.90;;
37529;SDS011;23374;52.758;6.872;2022-08-19T10:51:14;11.83;;;6.53;;
37529;SDS011;23374;52.758;6.872;2022-08-19T10:53:53;10.33;;;6.07;;
37529;SDS011;23374;52.758;6.872;2022-08-19T10:56:15;13.30;;;7.93;;
37529;SDS011;23374;52.758;6.872;2022-08-19T10:58:55;13.23;;;8.43;;
37529;SDS011;23374;52.758;6.872;2022-08-19T11:01:17;13.27;;;8.53;;
37529;SDS011;23374;52.758;6.872;2022-08-19T11:03:37;14.03;;;8.40;;
37529;SDS011;23374;52.758;6.872;2022-08-19T11:08:28;14.60;;;9.40;;
37529;SDS011;23374;52.758;6.872;2022-08-19T11:10:52;11.73;;;8.10;;
37529;SDS011;23374;52.758;6.872;2022-08-19T11:13:20;11.67;;;8.73;;
37529;SDS011;23374;52.758;6.872;2022-08-19T11:15:41;12.37;;;7.87;;
37529;SDS011;23374;52.758;6.872;2022-08-19T11:18:01;12.27;;;7.37;;
37529;SDS011;23374;52.758;6.872;2022-08-19T11:20:22;10.80;;;7.67;;
37529;SDS011;23374;52.758;6.872;2022-08-19T11:22:43;10.07;;;7.67;;
37529;SDS011;23374;52.758;6.872;2022-08-19T11:25:03;8.60;;;6.10;;
37529;SDS011;23374;52.758;6.872;2022-08-19T11:27:24;10.30;;;6.37;;
37529;SDS011;23374;52.758;6.872;2022-08-19T11:29:44;9.87;;;6.37;;
37529;SDS011;23374;52.758;6.872;2022-08-19T11:32:06;12.17;;;7.07;;
37529;SDS011;23374;52.758;6.872;2022-08-19T11:34:29;8.63;;;6.93;;
37529;SDS011;23374;52.758;6.872;2022-08-19T11:36:50;10.83;;;6.93;;
37529;SDS011;23374;52.758;6.872;2022-08-19T11:39:13;10.87;;;7.93;;
37529;SDS011;23374;52.758;6.872;2022-08-19T11:41:36;11.83;;;7.57;;
37529;SDS011;23374;52.758;6.872;2022-08-19T11:43:56;12.50;;;7.73;;
37529;SDS011;23374;52.758;6.872;2022-08-19T11:46:17;9.83;;;6.77;;
37529;SDS011;23374;52.758;6.872;2022-08-19T11:48:37;13.37;;;7.40;;
37529;SDS011;23374;52.758;6.872;2022-08-19T11:50:58;10.03;;;6.93;;
37529;SDS011;23374;52.758;6.872;2022-08-19T11:53:19;8.73;;;6.73;;
37529;SDS011;23374;52.758;6.872;2022-08-19T11:55:40;8.97;;;6.10;;
37529;SDS011;23374;52.758;6.872;2022-08-19T11:58:02;9.17;;;6.53;;
37529;SDS011;23374;52.758;6.872;2022-08-19T12:00:22;10.03;;;5.47;;
37529;SDS011;23374;52.758;6.872;2022-08-19T12:02:43;9.50;;;6.77;;
37529;SDS011;23374;52.758;6.872;2022-08-19T12:05:04;10.27;;;6.50;;
37529;SDS011;23374;52.758;6.872;2022-08-19T12:07:25;9.30;;;6.23;;
37529;SDS011;23374;52.758;6.872;2022-08-19T12:09:46;11.23;;;6.40;;
37529;SDS011;23374;52.758;6.872;2022-08-19T12:12:07;9.73;;;6.20;;
37529;SDS011;23374;52.758;6.872;2022-08-19T12:14:29;9.50;;;6.73;;
37529;SDS011;23374;52.758;6.872;2022-08-19T12:16:51;7.30;;;5.90;;
37529;SDS011;23374;52.758;6.872;2022-08-19T12:19:11;11.20;;;6.83;;
37529;SDS011;23374;52.758;6.872;2022-08-19T12:21:33;9.47;;;6.40;;
37529;SDS011;23374;52.758;6.872;2022-08-19T12:23:56;10.57;;;7.43;;
37529;SDS011;23374;52.758;6.872;2022-08-19T12:26:17;11.67;;;7.30;;
37529;SDS011;23374;52.758;6.872;2022-08-19T12:28:38;11.23;;;7.27;;
37529;SDS011;23374;52.758;6.872;2022-08-19T12:30:58;10.17;;;6.87;;
37529;SDS011;23374;52.758;6.872;2022-08-19T12:33:19;10.90;;;7.13;;
37529;SDS011;23374;52.758;6.872;2022-08-19T12:35:44;9.43;;;6.73;;
37529;SDS011;23374;52.758;6.872;2022-08-19T12:38:06;9.00;;;6.57;;
37529;SDS011;23374;52.758;6.872;2022-08-19T12:40:26;8.63;;;6.50;;
37529;SDS011;23374;52.758;6.872;2022-08-19T12:42:46;7.97;;;5.87;;
37529;SDS011;23374;52.758;6.872;2022-08-19T12:45:10;7.03;;;5.10;;
37529;SDS011;23374;52.758;6.872;2022-08-19T12:47:31;8.30;;;5.07;;
37529;SDS011;23374;52.758;6.872;2022-08-19T12:49:52;8.97;;;4.70;;
37529;SDS011;23374;52.758;6.872;2022-08-19T12:52:14;6.83;;;4.20;;
37529;SDS011;23374;52.758;6.872;2022-08-19T12:54:36;6.93;;;5.03;;
37529;SDS011;23374;52.758;6.872;2022-08-19T12:56:58;7.77;;;5.60;;
37529;SDS011;23374;52.758;6.872;2022-08-19T12:59:19;8.93;;;5.30;;
37529;SDS011;23374;52.758;6.872;2022-08-19T13:01:39;9.03;;;5.77;;
37529;SDS011;23374;52.758;6.872;2022-08-19T13:04:00;6.07;;;5.10;;
37529;SDS011;23374;52.758;6.872;2022-08-19T13:06:21;10.63;;;6.40;;
37529;SDS011;23374;52.758;6.872;2022-08-19T13:08:42;7.37;;;5.90;;
37529;SDS011;23374;52.758;6.872;2022-08-19T13:11:14;11.13;;;6.97;;
37529;SDS011;23374;52.758;6.872;2022-08-19T13:13:38;10.27;;;6.23;;
37529;SDS011;23374;52.758;6.872;2022-08-19T13:16:00;8.33;;;7.13;;
37529;SDS011;23374;52.758;6.872;2022-08-19T13:18:22;7.53;;;5.83;;
37529;SDS011;23374;52.758;6.872;2022-08-19T13:20:45;7.70;;;5.70;;
37529;SDS011;23374;52.758;6.872;2022-08-19T13:23:06;6.83;;;4.93;;
37529;SDS011;23374;52.758;6.872;2022-08-19T13:25:27;8.03;;;5.77;;
37529;SDS011;23374;52.758;6.872;2022-08-19T13:27:48;7.73;;;5.30;;
37529;SDS011;23374;52.758;6.872;2022-08-19T13:30:11;6.93;;;5.87;;
37529;SDS011;23374;52.758;6.872;2022-08-19T13:32:52;7.17;;;4.83;;
37529;SDS011;23374;52.758;6.872;2022-08-19T13:35:31;6.77;;;4.63;;
37529;SDS011;23374;52.758;6.872;2022-08-19T13:37:51;7.80;;;4.80;;
37529;SDS011;23374;52.758;6.872;2022-08-19T13:40:17;4.53;;;3.90;;
37529;SDS011;23374;52.758;6.872;2022-08-19T13:42:43;4.10;;;3.63;;
37529;SDS011;23374;52.758;6.872;2022-08-19T13:45:06;5.10;;;3.60;;
37529;SDS011;23374;52.758;6.872;2022-08-19T13:47:27;6.80;;;5.10;;
37529;SDS011;23374;52.758;6.872;2022-08-19T13:49:47;5.47;;;4.67;;
37529;SDS011;23374;52.758;6.872;2022-08-19T13:52:09;8.83;;;5.60;;
37529;SDS011;23374;52.758;6.872;2022-08-19T13:54:29;8.10;;;5.40;;
37529;SDS011;23374;52.758;6.872;2022-08-19T13:56:50;7.83;;;5.20;;
37529;SDS011;23374;52.758;6.872;2022-08-19T13:59:10;6.73;;;4.43;;
37529;SDS011;23374;52.758;6.872;2022-08-19T14:01:31;4.83;;;4.13;;
37529;SDS011;23374;52.758;6.872;2022-08-19T14:03:52;4.40;;;3.80;;
37529;SDS011;23374;52.758;6.872;2022-08-19T14:06:12;4.60;;;3.50;;
37529;SDS011;23374;52.758;6.872;2022-08-19T14:08:32;3.80;;;3.40;;
37529;SDS011;23374;52.758;6.872;2022-08-19T14:10:54;6.23;;;3.90;;
37529;SDS011;23374;52.758;6.872;2022-08-19T14:13:18;5.00;;;4.50;;
37529;SDS011;23374;52.758;6.872;2022-08-19T14:15:40;6.97;;;4.50;;
37529;SDS011;23374;52.758;6.872;2022-08-19T14:18:01;7.23;;;5.27;;
37529;SDS011;23374;52.758;6.872;2022-08-19T14:20:21;6.90;;;5.23;;
37529;SDS011;23374;52.758;6.872;2022-08-19T14:22:43;6.63;;;5.33;;
37529;SDS011;23374;52.758;6.872;2022-08-19T14:25:10;9.83;;;5.47;;
37529;SDS011;23374;52.758;6.872;2022-08-19T14:27:35;9.27;;;5.70;;
37529;SDS011;23374;52.758;6.872;2022-08-19T14:29:56;7.80;;;5.07;;
37529;SDS011;23374;52.758;6.872;2022-08-19T14:32:16;4.97;;;4.20;;
37529;SDS011;23374;52.758;6.872;2022-08-19T14:34:37;5.27;;;3.47;;
37529;SDS011;23374;52.758;6.872;2022-08-19T14:36:57;3.37;;;2.70;;
37529;SDS011;23374;52.758;6.872;2022-08-19T14:39:18;7.77;;;3.07;;
37529;SDS011;23374;52.758;6.872;2022-08-19T14:41:40;6.47;;;3.80;;
37529;SDS011;23374;52.758;6.872;2022-08-19T14:44:01;4.83;;;3.73;;